Time;durP1;ratioP1;P1;durP2;ratioP2;P2;SDS_P1;SDS_P2;PMS_P1;PMS_P2;Temp;Humidity;BMP_temperature;BMP_pressure;BME280_temperature;BME280_humidity;BME280_pressure;Samples;Min_cycle;Max_cycle;Signal;HPM_P1;HPM_P2
2022/10/13 00:00:50;;;;;;;63.53;21.73;;;;;;;-145.69;100.00;52604.81;5056530;28;20685;-86
2022/10/13 00:03:17;;;;;;;69.43;22.47;;;;;;;-145.69;100.00;52586.97;5056479;28;20230;-86
2022/10/13 00:05:47;;;;;;;63.17;22.13;;;;;;;-145.69;100.00;52602.81;5056595;28;20196;-86
2022/10/13 00:08:17;;;;;;;78.07;24.97;;;;;;;-145.69;100.00;52606.78;5055822;28;20203;-86
2022/10/13 00:10:47;;;;;;;77.70;24.83;;;;;;;-145.69;100.00;52608.75;5056359;28;20725;-86
2022/10/13 00:13:18;;;;;;;58.57;21.40;;;;;;;-145.69;100.00;52586.97;5056345;28;20208;-86
2022/10/13 00:15:46;;;;;;;61.00;22.50;;;;;;;-145.69;100.00;52610.75;5056176;28;20231;-86
2022/10/13 00:18:13;;;;;;;67.70;24.37;;;;;;;-145.69;100.00;52624.59;5055701;28;20282;-87
2022/10/13 00:20:46;;;;;;;61.13;22.27;;;;;;;-145.69;100.00;52608.75;5056097;28;20645;-86
2022/10/13 00:23:12;;;;;;;69.33;22.23;;;;;;;-145.69;100.00;52594.91;5056342;28;20195;-87
2022/10/13 00:25:46;;;;;;;67.97;23.77;;;;;;;-145.69;100.00;52596.88;5055856;28;20215;-86
2022/10/13 00:28:13;;;;;;;60.97;22.43;;;;;;;-145.69;100.00;52561.22;5055567;28;20662;-86
2022/10/13 00:30:43;;;;;;;61.83;21.03;;;;;;;-145.69;100.00;52610.75;5055891;28;20203;-85
2022/10/13 00:33:11;;;;;;;50.50;19.27;;;;;;;-145.69;100.00;52590.94;5055730;28;20257;-87
2022/10/13 00:35:40;;;;;;;51.60;18.50;;;;;;;-145.69;100.00;52588.97;5055842;28;20234;-86
2022/10/13 00:38:08;;;;;;;46.42;17.55;;;;;;;-145.69;100.00;52602.81;5055915;28;20658;-86
2022/10/13 00:40:43;;;;;;;44.93;17.90;;;;;;;-145.69;100.00;52606.78;5056046;28;20554;-86
2022/10/13 00:43:18;;;;;;;44.77;18.80;;;;;;;-145.69;100.00;52598.84;5055677;28;20740;-86
2022/10/13 00:45:48;;;;;;;42.80;17.03;;;;;;;-145.69;100.00;52563.22;5055594;28;20265;-86
2022/10/13 00:48:20;;;;;;;37.60;16.43;;;;;;;-145.69;100.00;52630.53;5056028;28;20217;-85
2022/10/13 00:50:47;;;;;;;36.43;15.93;;;;;;;-145.69;100.00;52598.84;5052399;28;20203;-86
2022/10/13 00:53:19;;;;;;;45.20;16.50;;;;;;;-145.69;100.00;52590.94;5075100;28;20203;-86
2022/10/13 00:55:47;;;;;;;36.07;15.87;;;;;;;-145.69;100.00;52602.81;5058224;28;20229;-86
2022/10/13 00:58:16;;;;;;;41.03;16.23;;;;;;;-145.69;100.00;52579.06;5055260;28;20651;-85
2022/10/13 01:00:46;;;;;;;40.40;17.90;;;;;;;-145.69;100.00;52586.97;5055013;28;20440;-85
2022/10/13 01:03:14;;;;;;;32.88;14.85;;;;;;;-145.69;100.00;52588.97;5055923;28;20203;-86
2022/10/13 01:05:42;;;;;;;36.85;16.30;;;;;;;-145.69;100.00;52610.75;5055481;28;20267;-85
2022/10/13 01:08:09;;;;;;;45.33;17.10;;;;;;;-145.69;100.00;52586.97;5055204;28;20207;-86
2022/10/13 01:10:49;;;;;;;45.42;16.95;;;;;;;-145.69;100.00;52602.81;5055027;28;20295;-86
2022/10/13 01:13:25;;;;;;;39.87;15.33;;;;;;;-145.69;100.00;52614.72;5060473;28;20199;-86
2022/10/13 01:16:00;;;;;;;38.60;16.35;;;;;;;-145.69;100.00;52598.84;5075363;28;20230;-86
2022/10/13 01:18:33;;;;;;;39.97;16.67;;;;;;;-145.69;100.00;52608.75;5074751;28;20321;-86
2022/10/13 01:21:08;;;;;;;41.53;17.30;;;;;;;-145.69;100.00;52579.06;5074728;28;20565;-85
2022/10/13 01:24:03;;;;;;;45.13;18.30;;;;;;;-145.69;100.00;52571.13;5075162;28;20198;-85
2022/10/13 01:27:03;;;;;;;50.87;18.47;;;;;;;-145.69;100.00;52594.91;5075040;28;20202;-86
2022/10/13 01:30:02;;;;;;;37.08;17.42;;;;;;;-145.69;100.00;52606.78;5069659;28;20626;-86
2022/10/13 01:32:32;;;;;;;42.85;16.80;;;;;;;-145.69;100.00;52606.78;5074786;28;20641;-85
2022/10/13 01:35:06;;;;;;;41.95;18.27;;;;;;;-145.69;100.00;52618.66;5074535;28;20233;-85
2022/10/13 01:37:40;;;;;;;40.38;17.35;;;;;;;-145.69;100.00;52585.00;5074515;28;20308;-85
2022/10/13 01:40:13;;;;;;;53.17;18.58;;;;;;;-145.69;100.00;52555.28;5074405;28;20659;-85
2022/10/13 01:42:46;;;;;;;41.23;17.47;;;;;;;-145.69;100.00;52596.88;5073936;28;20195;-86
2022/10/13 01:45:18;;;;;;;44.95;17.05;;;;;;;-145.69;100.00;52614.72;5054522;28;20205;-86
2022/10/13 01:47:46;;;;;;;41.17;16.00;;;;;;;-145.69;100.00;52579.06;5054409;28;20200;-85
2022/10/13 01:50:16;;;;;;;31.27;15.68;;;;;;;-145.69;100.00;52594.91;5054345;28;20214;-86
2022/10/13 01:52:43;;;;;;;33.50;17.35;;;;;;;-145.69;100.00;52594.91;5053420;28;20442;-85
2022/10/13 01:55:12;;;;;;;28.98;13.02;;;;;;;-145.69;100.00;52575.09;5054200;28;20247;-86
2022/10/13 01:57:41;;;;;;;31.98;14.25;;;;;;;-145.69;100.00;52594.91;5054184;28;20558;-85
2022/10/13 02:00:10;;;;;;;32.70;13.63;;;;;;;-145.69;100.00;52586.97;5053933;28;20245;-85
2022/10/13 02:02:47;;;;;;;29.27;14.23;;;;;;;-145.69;100.00;52583.00;5054219;28;20204;-85
2022/10/13 02:05:23;;;;;;;32.40;14.10;;;;;;;-145.69;100.00;52602.81;5052983;28;20191;-84
2022/10/13 02:07:56;;;;;;;31.75;13.93;;;;;;;-145.69;100.00;52567.16;5053852;28;20199;-85
2022/10/13 02:10:28;;;;;;;31.23;15.43;;;;;;;-145.69;100.00;52610.75;5070574;28;20290;-84
2022/10/13 02:12:59;;;;;;;27.80;13.73;;;;;;;-145.69;100.00;52579.06;5073955;28;20281;-85
2022/10/13 02:15:31;;;;;;;29.37;13.93;;;;;;;-145.69;100.00;52594.91;5066963;28;20250;-83
2022/10/13 02:18:01;;;;;;;35.27;14.83;;;;;;;-145.69;100.00;52579.06;5053521;28;20227;-85
2022/10/13 02:20:28;;;;;;;31.80;14.10;;;;;;;-145.69;100.00;52614.72;5053567;28;20645;-85
2022/10/13 02:23:00;;;;;;;29.63;14.20;;;;;;;-145.69;100.00;52602.81;5053865;28;20199;-85
2022/10/13 02:25:30;;;;;;;27.90;13.60;;;;;;;-145.69;100.00;52581.03;5053619;28;20536;-84
2022/10/13 02:27:59;;;;;;;31.73;15.37;;;;;;;-145.69;100.00;52559.25;5053466;28;20200;-84
2022/10/13 02:30:29;;;;;;;33.37;15.07;;;;;;;-145.69;100.00;52598.84;5053645;28;20662;-84
2022/10/13 02:32:55;;;;;;;30.13;14.73;;;;;;;-145.69;100.00;52563.22;5053656;28;20226;-84
2022/10/13 02:35:25;;;;;;;27.93;15.03;;;;;;;-145.69;100.00;52583.00;5053281;28;20227;-84
2022/10/13 02:37:51;;;;;;;29.07;14.73;;;;;;;-145.69;100.00;52598.84;5053309;28;20206;-85
2022/10/13 02:40:18;;;;;;;30.73;14.27;;;;;;;-145.69;100.00;52590.94;5053684;28;20202;-86
2022/10/13 02:42:45;;;;;;;30.13;14.43;;;;;;;-145.69;100.00;52590.94;5053808;28;20661;-87
2022/10/13 02:45:11;;;;;;;29.90;13.23;;;;;;;-145.69;100.00;52598.84;5053419;28;20195;-85
2022/10/13 02:47:38;;;;;;;35.20;15.23;;;;;;;-145.69;100.00;52604.81;5053723;28;20200;-85
2022/10/13 02:50:05;;;;;;;31.93;15.10;;;;;;;-145.69;100.00;52590.94;5051599;28;20203;-85
2022/10/13 02:52:33;;;;;;;32.22;15.30;;;;;;;-145.69;100.00;52575.09;5053337;28;20199;-85
2022/10/13 02:55:00;;;;;;;28.10;13.77;;;;;;;-145.69;100.00;52583.00;5053242;28;20226;-86
2022/10/13 02:57:26;;;;;;;31.23;13.83;;;;;;;-145.69;100.00;52604.81;5053733;28;20199;-85
2022/10/13 02:59:53;;;;;;;29.70;14.53;;;;;;;-145.69;100.00;52583.00;5053123;28;20658;-85
2022/10/13 03:02:19;;;;;;;35.30;14.87;;;;;;;-145.69;100.00;52596.88;5053333;28;20199;-85
2022/10/13 03:04:46;;;;;;;27.73;14.23;;;;;;;-145.69;100.00;52614.72;5053352;28;20209;-85
2022/10/13 03:07:13;;;;;;;30.20;13.48;;;;;;;-145.69;100.00;52598.84;5053193;28;20239;-85
2022/10/13 03:09:41;;;;;;;29.87;13.03;;;;;;;-145.69;100.00;52588.97;5062763;28;20199;-85
2022/10/13 03:12:07;;;;;;;26.63;12.13;;;;;;;-145.69;100.00;52579.06;5073742;28;20221;-85
2022/10/13 03:14:34;;;;;;;30.17;11.77;;;;;;;-145.69;100.00;52579.06;5073312;28;20202;-86
2022/10/13 03:17:01;;;;;;;24.83;10.80;;;;;;;-145.69;100.00;52614.72;5075355;28;20672;-85
2022/10/13 03:19:27;;;;;;;24.95;12.68;;;;;;;-145.69;100.00;52571.13;5075936;28;20460;-85
2022/10/13 03:21:54;;;;;;;27.13;11.95;;;;;;;-145.69;100.00;52602.81;5076792;28;20198;-85
2022/10/13 03:24:20;;;;;;;20.98;10.57;;;;;;;-145.69;100.00;52610.75;5076732;28;20290;-85
2022/10/13 03:26:48;;;;;;;21.07;10.93;;;;;;;-145.69;100.00;52590.94;5077295;28;20561;-84
2022/10/13 03:29:16;;;;;;;20.77;10.05;;;;;;;-145.69;100.00;52608.75;5077048;28;20201;-86
2022/10/13 03:31:43;;;;;;;17.30;9.32;;;;;;;-145.69;100.00;52583.00;5077328;28;20705;-86
2022/10/13 03:34:11;;;;;;;20.85;8.57;;;;;;;-145.69;100.00;52598.84;5076974;28;20209;-85
2022/10/13 03:36:37;;;;;;;18.40;8.90;;;;;;;-145.69;100.00;52604.81;5076717;28;20230;-86
2022/10/13 03:39:06;;;;;;;33.60;11.00;;;;;;;-145.69;100.00;52620.66;5067989;28;20199;-85
2022/10/13 03:41:36;;;;;;;25.40;10.00;;;;;;;-145.69;100.00;52626.59;5056376;28;20199;-85
2022/10/13 03:44:04;;;;;;;18.57;8.37;;;;;;;-145.69;100.00;52581.03;5056272;28;20218;-85
2022/10/13 03:46:31;;;;;;;19.53;9.47;;;;;;;-145.69;100.00;52606.78;5056219;28;20207;-85
2022/10/13 03:48:57;;;;;;;18.90;9.67;;;;;;;-145.69;100.00;52626.59;5056662;28;20206;-84
2022/10/13 03:51:25;;;;;;;21.37;9.67;;;;;;;-145.69;100.00;52634.50;5056672;28;20210;-85
2022/10/13 03:53:52;;;;;;;25.03;10.17;;;;;;;-145.69;100.00;52610.75;5057020;28;20234;-85
2022/10/13 03:56:23;;;;;;;23.70;9.93;;;;;;;-145.69;100.00;52606.78;5056342;28;20223;-85
2022/10/13 03:58:53;;;;;;;24.27;10.13;;;;;;;-145.69;100.00;52606.78;5056714;28;20286;-86
2022/10/13 04:01:22;;;;;;;31.50;11.37;;;;;;;-145.69;100.00;52622.63;5056214;28;20203;-85
2022/10/13 04:03:52;;;;;;;24.67;11.13;;;;;;;-145.69;100.00;52622.63;5056250;28;20199;-85
2022/10/13 04:06:19;;;;;;;28.20;10.33;;;;;;;-145.69;100.00;52626.59;5056462;28;20204;-85
2022/10/13 04:08:46;;;;;;;23.53;10.70;;;;;;;-145.69;100.00;52636.50;5056118;28;20203;-85
2022/10/13 04:11:16;;;;;;;27.67;10.97;;;;;;;-145.69;100.00;52626.59;5056135;28;20211;-85
2022/10/13 04:13:43;;;;;;;23.97;10.87;;;;;;;-145.69;100.00;52600.84;5056210;28;20203;-85
2022/10/13 04:16:13;;;;;;;28.33;11.37;;;;;;;-145.69;100.00;52642.44;5056022;28;20238;-85
2022/10/13 04:18:41;;;;;;;27.07;11.80;;;;;;;-145.69;100.00;52628.56;5055943;28;20564;-84
2022/10/13 04:21:12;;;;;;;30.73;11.73;;;;;;;-145.69;100.00;52614.72;5055771;28;20554;-84
2022/10/13 04:23:38;;;;;;;27.70;12.67;;;;;;;-145.69;100.00;52654.31;5055441;28;20199;-84
2022/10/13 04:26:06;;;;;;;29.20;12.77;;;;;;;-145.69;100.00;52640.44;5055834;28;20199;-84
2022/10/13 04:28:34;;;;;;;33.13;12.63;;;;;;;-145.69;100.00;52642.44;5056171;28;20204;-83
2022/10/13 04:31:01;;;;;;;30.17;12.07;;;;;;;-145.69;100.00;52630.53;5075812;28;20206;-83
2022/10/13 04:33:28;;;;;;;31.60;13.00;;;;;;;-145.69;100.00;52606.78;5075763;28;20206;-83
2022/10/13 04:35:56;;;;;;;31.33;13.07;;;;;;;-145.69;100.00;52678.09;5075568;28;20222;-85
2022/10/13 04:38:22;;;;;;;30.87;11.63;;;;;;;-145.69;100.00;52604.81;5075896;28;20199;-85
2022/10/13 04:40:50;;;;;;;31.27;12.17;;;;;;;-145.69;100.00;52658.28;5075777;28;20205;-85
2022/10/13 04:43:16;;;;;;;34.57;13.60;;;;;;;-145.69;100.00;52622.63;5075663;28;20205;-84
2022/10/13 04:45:43;;;;;;;36.67;13.90;;;;;;;-145.69;100.00;52614.72;5075303;28;20194;-84
2022/10/13 04:48:10;;;;;;;34.83;14.23;;;;;;;-145.69;100.00;52624.59;5075465;28;20210;-85
2022/10/13 04:50:36;;;;;;;32.47;13.63;;;;;;;-145.69;100.00;52628.56;5066331;28;20206;-85
2022/10/13 04:53:04;;;;;;;33.60;12.23;;;;;;;-145.69;100.00;52622.63;5055669;28;20204;-85
2022/10/13 04:55:30;;;;;;;27.47;11.90;;;;;;;-145.69;100.00;52662.22;5055322;28;20725;-85
2022/10/13 04:57:57;;;;;;;47.55;18.08;;;;;;;-145.69;100.00;52628.56;5054442;28;20450;-85
2022/10/13 05:00:26;;;;;;;35.40;13.67;;;;;;;-145.69;100.00;52654.31;5055261;28;20264;-85
2022/10/13 05:02:52;;;;;;;38.90;13.17;;;;;;;-145.69;100.00;52612.72;5055870;28;20203;-85
2022/10/13 05:05:19;;;;;;;48.30;15.03;;;;;;;-145.69;100.00;52630.53;5055449;28;20203;-84
2022/10/13 05:07:48;;;;;;;56.53;21.85;;;;;;;-145.69;100.00;52636.50;5054210;28;20530;-85
2022/10/13 05:10:16;;;;;;;63.57;19.57;;;;;;;-145.69;100.00;52648.38;5054652;28;20199;-84
2022/10/13 05:12:42;;;;;;;60.23;18.53;;;;;;;-145.69;100.00;52616.69;5054961;28;20206;-85
2022/10/13 05:15:10;;;;;;;58.30;17.50;;;;;;;-145.69;100.00;52642.44;5054908;28;20558;-85
2022/10/13 05:17:36;;;;;;;46.67;15.87;;;;;;;-145.69;100.00;52628.56;5055034;28;20231;-85
2022/10/13 05:20:03;;;;;;;35.03;12.87;;;;;;;-145.69;100.00;52654.31;5055082;28;20218;-84
2022/10/13 05:22:29;;;;;;;48.17;14.60;;;;;;;-145.69;100.00;52650.34;5054853;28;20199;-85
2022/10/13 05:24:58;;;;;;;45.10;14.77;;;;;;;-145.69;100.00;52670.16;5054925;28;20239;-85
2022/10/13 05:27:26;;;;;;;59.60;16.83;;;;;;;-145.69;100.00;52664.22;5055199;28;20286;-86
2022/10/13 05:29:53;;;;;;;50.73;17.50;;;;;;;-145.69;100.00;52630.53;5055200;28;20655;-84
2022/10/13 05:32:22;;;;;;;49.43;15.80;;;;;;;-145.69;100.00;52634.50;5054927;28;20210;-85
2022/10/13 05:34:48;;;;;;;42.90;13.80;;;;;;;-145.69;100.00;52670.16;5054812;28;20562;-85
2022/10/13 05:37:21;;;;;;;37.73;13.13;;;;;;;-145.69;100.00;52660.25;5054931;28;20223;-84
2022/10/13 05:39:48;;;;;;;38.50;13.20;;;;;;;-145.69;100.00;52610.75;5054226;28;20218;-84
2022/10/13 05:42:18;;;;;;;37.63;13.07;;;;;;;-145.69;100.00;52642.44;5054632;28;20222;-85
2022/10/13 05:44:45;;;;;;;46.37;15.63;;;;;;;-145.69;100.00;52628.56;5054415;28;20199;-84
2022/10/13 05:47:12;;;;;;;37.43;13.90;;;;;;;-145.69;100.00;52652.34;5054723;28;20218;-86
2022/10/13 05:49:39;;;;;;;43.10;14.60;;;;;;;-145.69;100.00;52634.50;5054451;28;20203;-85
2022/10/13 05:52:09;;;;;;;49.57;15.60;;;;;;;-145.69;100.00;52642.44;5054124;28;20199;-85
2022/10/13 05:54:41;;;;;;;56.77;16.23;;;;;;;-145.69;100.00;52658.28;5054366;28;20203;-85
2022/10/13 05:57:13;;;;;;;44.80;14.97;;;;;;;-145.69;100.00;52662.22;5054503;28;20226;-86
2022/10/13 05:59:43;;;;;;;51.77;18.37;;;;;;;-145.69;100.00;52634.50;5053514;28;20929;-85
2022/10/13 06:02:13;;;;;;;51.37;16.97;;;;;;;-145.69;100.00;52614.72;5053979;28;20442;-85
2022/10/13 06:04:45;;;;;;;48.00;15.33;;;;;;;-145.69;100.00;52664.22;5054919;28;20203;-84
2022/10/13 06:07:11;;;;;;;51.53;14.30;;;;;;;-145.69;100.00;52620.66;5054512;28;20203;-85
2022/10/13 06:09:39;;;;;;;38.33;13.00;;;;;;;-145.69;100.00;52652.34;5054165;28;20203;-85
2022/10/13 06:12:09;;;;;;;48.70;14.87;;;;;;;-145.69;100.00;52658.28;5053818;28;20199;-84
2022/10/13 06:14:35;;;;;;;66.20;19.30;;;;;;;-145.69;100.00;52658.28;5055325;28;20234;-84
2022/10/13 06:17:02;;;;;;;83.13;20.17;;;;;;;-145.69;100.00;52654.31;5054331;28;20234;-84
2022/10/13 06:19:32;;;;;;;76.10;19.80;;;;;;;-145.69;100.00;52652.34;5055167;28;20638;-83
2022/10/13 06:21:58;;;;;;;70.27;19.57;;;;;;;-145.69;100.00;52634.50;5057242;28;20210;-85
2022/10/13 06:24:25;;;;;;;71.33;20.30;;;;;;;-145.69;100.00;52598.84;5055156;28;20199;-85
2022/10/13 06:26:51;;;;;;;69.73;19.60;;;;;;;-145.69;100.00;52610.75;5053661;28;20199;-85
2022/10/13 06:29:18;;;;;;;67.57;18.53;;;;;;;-145.69;100.00;52624.59;5068139;28;20202;-84
2022/10/13 06:31:44;;;;;;;52.10;17.07;;;;;;;-145.69;100.00;52624.59;5074288;28;20198;-84
2022/10/13 06:34:11;;;;;;;49.03;16.43;;;;;;;-145.69;100.00;52638.47;5075504;28;20207;-84
2022/10/13 06:36:40;;;;;;;47.37;16.33;;;;;;;-145.69;100.00;52618.66;5077475;28;20226;-84
2022/10/13 06:39:08;;;;;;;43.07;15.93;;;;;;;-145.69;100.00;52638.47;5076187;28;20202;-84
2022/10/13 06:41:35;;;;;;;52.23;17.63;;;;;;;-145.69;100.00;52606.78;5077768;28;20209;-84
2022/10/13 06:44:02;;;;;;;53.47;17.97;;;;;;;-145.69;100.00;52614.72;5075581;28;20209;-84
2022/10/13 06:46:28;;;;;;;51.20;16.83;;;;;;;-145.69;100.00;52614.72;5074123;28;20202;-84
2022/10/13 06:48:55;;;;;;;49.33;18.50;;;;;;;-145.69;100.00;52624.59;5074714;28;20206;-84
2022/10/13 06:51:21;;;;;;;44.67;16.70;;;;;;;-145.69;100.00;52638.47;5075607;28;20213;-84
2022/10/13 06:53:49;;;;;;;51.23;19.70;;;;;;;-145.69;100.00;52579.06;5078961;28;20207;-85
2022/10/13 06:56:16;;;;;;;47.60;16.00;;;;;;;-145.69;100.00;52624.59;5078772;28;20225;-84
2022/10/13 06:58:42;;;;;;;56.70;17.37;;;;;;;-145.69;100.00;52624.59;5070306;28;20195;-84
2022/10/13 07:01:12;;;;;;;44.80;15.43;;;;;;;-145.69;100.00;52628.56;5057647;28;20199;-83
2022/10/13 07:03:39;;;;;;;45.23;14.73;;;;;;;-145.69;100.00;52598.84;5057805;28;20196;-83
2022/10/13 07:06:06;;;;;;;39.17;14.70;;;;;;;-145.69;100.00;52588.97;5056662;28;20199;-83
2022/10/13 07:08:34;;;;;;;39.10;14.63;;;;;;;-145.69;100.00;52610.75;5057017;28;20195;-83
2022/10/13 07:11:07;;;;;;;35.43;14.23;;;;;;;-145.69;100.00;52586.97;5056748;28;20295;-84
2022/10/13 07:13:34;;;;;;;33.17;14.17;;;;;;;-145.69;100.00;52596.88;5057406;28;20230;-86
2022/10/13 07:16:02;;;;;;;31.27;14.13;;;;;;;-145.69;100.00;52596.88;5057202;28;20211;-85
2022/10/13 07:18:29;;;;;;;40.25;17.70;;;;;;;-145.69;100.00;52618.66;5057081;28;20227;-84
2022/10/13 07:20:57;;;;;;;29.17;13.02;;;;;;;-145.69;100.00;52592.91;5057171;28;20203;-85
2022/10/13 07:23:24;;;;;;;30.63;11.80;;;;;;;-145.69;100.00;52594.91;5056924;28;20557;-85
2022/10/13 07:25:50;;;;;;;20.45;10.63;;;;;;;-145.69;100.00;52585.00;5057243;28;20374;-85
2022/10/13 07:28:18;;;;;;;26.88;10.95;;;;;;;-145.69;100.00;52539.44;5064476;28;20194;-85
2022/10/13 07:30:45;;;;;;;29.08;11.50;;;;;;;-145.69;100.00;52571.13;5077254;28;20224;-84
2022/10/13 07:33:11;;;;;;;22.88;9.90;;;;;;;-145.69;100.00;52559.25;5076025;28;20209;-82
2022/10/13 07:35:39;;;;;;;21.23;10.15;;;;;;;-145.69;100.00;52596.88;5076175;28;20526;-81
2022/10/13 07:38:06;;;;;;;20.23;8.80;;;;;;;-145.69;100.00;52547.38;5064496;28;20219;-84
2022/10/13 07:40:32;;;;;;;17.88;8.80;;;;;;;-145.69;100.00;52531.53;5056476;28;20227;-83
2022/10/13 07:42:59;;;;;;;12.77;7.90;;;;;;;-145.69;100.00;52547.38;5056332;28;20208;-83
2022/10/13 07:45:27;;;;;;;23.75;7.85;;;;;;;-145.69;100.00;52555.28;5056187;28;20203;-83
2022/10/13 07:47:55;;;;;;;16.55;8.05;;;;;;;-145.69;100.00;52559.25;5055684;28;20691;-81
2022/10/13 07:50:22;;;;;;;16.45;8.45;;;;;;;-145.69;100.00;52539.44;5055919;28;20658;-82
2022/10/13 07:52:51;;;;;;;16.10;7.63;;;;;;;-145.69;100.00;52557.28;5055722;28;20203;-82
2022/10/13 07:55:17;;;;;;;14.25;6.95;;;;;;;-145.69;100.00;52555.28;5055739;28;20657;-82
2022/10/13 07:57:44;;;;;;;22.35;7.97;;;;;;;-145.69;100.00;52553.31;5055339;28;20227;-83
2022/10/13 08:00:11;;;;;;;16.13;7.63;;;;;;;-145.69;100.00;52533.50;5055766;28;20199;-82
2022/10/13 08:02:39;;;;;;;13.40;6.93;;;;;;;-145.69;100.00;52527.56;5054555;28;20205;-82
2022/10/13 08:05:06;;;;;;;15.00;6.78;;;;;;;-145.69;100.00;52527.56;5060778;28;20226;-82
2022/10/13 08:07:33;;;;;;;15.40;6.90;;;;;;;-145.69;100.00;52531.53;5055158;28;20195;-81
2022/10/13 08:09:59;;;;;;;16.33;7.43;;;;;;;-145.69;100.00;52571.13;5055529;28;20562;-82
2022/10/13 08:12:26;;;;;;;14.32;6.47;;;;;;;-145.69;100.00;52525.59;5055424;28;20199;-81
2022/10/13 08:14:52;;;;;;;14.13;6.60;;;;;;;-145.69;100.00;52499.84;5055446;28;20202;-81
2022/10/13 08:17:19;;;;;;;13.75;6.57;;;;;;;-145.69;100.00;52515.69;5054857;28;20251;-82
2022/10/13 08:19:47;;;;;;;18.65;6.50;;;;;;;-145.69;100.00;52539.44;5055209;28;20211;-82
2022/10/13 08:22:13;;;;;;;15.68;6.45;;;;;;;-145.69;100.00;52559.25;5055055;28;20203;-80
2022/10/13 08:24:40;;;;;;;12.30;5.78;;;;;;;-145.69;100.00;52521.63;5055148;28;20622;-80
2022/10/13 08:27:10;;;;;;;15.73;5.82;;;;;;;-145.69;100.00;52535.47;5055290;28;20203;-79
2022/10/13 08:29:37;;;;;;;17.00;6.13;;;;;;;-145.69;100.00;52501.81;5055236;28;20199;-80
2022/10/13 08:32:03;;;;;;;12.20;5.88;;;;;;;-145.69;100.00;52499.84;5055007;28;20280;-80
2022/10/13 08:34:30;;;;;;;15.27;5.95;;;;;;;-145.69;100.00;52523.59;5058888;28;20186;-80
2022/10/13 08:36:59;;;;;;;14.05;6.88;;;;;;;-145.69;100.00;52489.94;5075002;28;20223;-81
2022/10/13 08:39:25;;;;;;;14.73;6.88;;;;;;;-145.69;100.00;52509.75;5075005;28;20238;-79
2022/10/13 08:41:53;;;;;;;15.35;6.68;;;;;;;-145.69;100.00;52513.69;5074781;28;20198;-80
2022/10/13 08:44:24;;;;;;;16.15;6.70;;;;;;;-145.69;100.00;52515.69;5074899;28;20209;-80
2022/10/13 08:46:59;;;;;;;13.55;5.90;;;;;;;-145.69;100.00;52515.69;5074841;28;20199;-79
2022/10/13 08:49:26;;;;;;;19.83;5.82;;;;;;;-145.69;100.00;52503.81;5070807;28;20198;-80
2022/10/13 08:51:52;;;;;;;13.65;5.80;;;;;;;-145.69;100.00;52487.97;5052467;28;20196;-80
2022/10/13 08:54:22;;;;;;;15.48;5.65;;;;;;;-145.69;100.00;52491.91;5054728;28;20293;-80
2022/10/13 08:56:50;;;;;;;13.25;5.63;;;;;;;-145.69;100.00;52497.84;5054665;28;20690;-80
2022/10/13 08:59:17;;;;;;;13.48;6.20;;;;;;;-145.69;100.00;52482.00;5054446;28;20203;-80
2022/10/13 09:01:47;;;;;;;13.55;4.93;;;;;;;-145.69;100.00;52507.75;5053498;28;20403;-81
2022/10/13 09:04:27;;;;;;;12.38;4.70;;;;;;;-145.69;100.00;52521.63;5055889;28;20210;-80
2022/10/13 09:06:57;;;;;;;14.43;4.75;;;;;;;-145.69;100.00;52470.13;5075234;28;20206;-81
2022/10/13 09:09:25;;;;;;;13.48;5.88;;;;;;;-145.69;100.00;52527.56;5076214;28;20205;-81
2022/10/13 09:11:52;;;;;;;13.27;6.15;;;;;;;-145.69;100.00;52480.03;5075233;28;20205;-80
2022/10/13 09:14:26;;;;;;;14.90;5.18;;;;;;;-145.69;100.00;52491.91;5074103;28;20214;-80
2022/10/13 09:16:53;;;;;;;15.55;4.80;;;;;;;-145.69;100.00;52485.97;5073201;28;20238;-80
2022/10/13 09:19:24;;;;;;;14.30;4.97;;;;;;;-145.69;100.00;52484.00;5072514;28;20244;-81
2022/10/13 09:21:52;;;;;;;15.98;4.90;;;;;;;-145.69;100.00;52482.00;5072981;28;20199;-81
2022/10/13 09:24:21;;;;;;;12.05;4.75;;;;;;;-145.69;100.00;52480.03;5073296;28;20561;-80
2022/10/13 09:26:52;;;;;;;8.63;4.32;;;;;;;-145.69;100.00;52511.72;5076154;28;20205;-80
2022/10/13 09:29:26;;;;;;;12.80;5.55;;;;;;;-145.69;100.00;52485.97;5076958;28;20199;-80
2022/10/13 09:32:09;;;;;;;11.30;5.28;;;;;;;-145.69;100.00;52495.88;5076948;28;20206;-80
2022/10/13 09:34:35;;;;;;;11.50;4.32;;;;;;;-145.69;100.00;52513.69;5071752;28;20220;-80
2022/10/13 09:37:04;;;;;;;17.15;4.63;;;;;;;-145.69;100.00;52456.28;5055546;28;20230;-80
2022/10/13 09:39:33;;;;;;;10.35;4.30;;;;;;;-145.69;100.00;52446.38;5055940;28;20218;-79
2022/10/13 09:42:21;;;;;;;9.65;4.60;;;;;;;-145.69;100.00;52468.16;5055915;28;20206;-80
2022/10/13 09:44:56;;;;;;;14.05;5.25;;;;;;;-145.69;100.00;52493.91;5055471;28;20199;-80
2022/10/13 09:47:26;;;;;;;12.95;5.03;;;;;;;-145.69;100.00;52462.22;5054810;28;20199;-80
2022/10/13 09:50:02;;;;;;;11.20;4.32;;;;;;;-145.69;99.97;52444.38;5055304;28;20203;-80
2022/10/13 09:52:29;;;;;;;17.15;4.07;;;;;;;-145.69;98.24;52480.03;5055025;28;20199;-80
2022/10/13 09:54:59;;;;;;;14.43;4.65;;;;;;;-145.69;95.18;52462.22;5055430;28;20199;-80
2022/10/13 09:57:34;;;;;;;11.80;4.70;;;;;;;-145.69;96.82;52458.25;5055002;28;20682;-80
2022/10/13 10:00:12;;;;;;;11.25;4.40;;;;;;;-145.69;95.94;52470.13;5056694;28;20201;-80
2022/10/13 10:02:47;;;;;;;12.55;4.85;;;;;;;-145.69;100.00;52456.28;5056197;28;20207;-81
2022/10/13 10:05:22;;;;;;;9.48;4.05;;;;;;;-145.69;98.72;52460.22;5056232;28;20194;-80
2022/10/13 10:07:49;;;;;;;6.55;3.30;;;;;;;-145.69;94.50;52432.50;5055456;28;20203;-80
2022/10/13 10:10:28;;;;;;;13.05;4.50;;;;;;;-145.69;92.04;52438.44;5055571;28;20563;-80
2022/10/13 10:12:56;;;;;;;11.13;3.80;;;;;;;-145.69;98.35;52452.31;5056014;28;20206;-80
2022/10/13 10:15:26;;;;;;;11.18;4.15;;;;;;;-145.69;99.72;52452.31;5056591;28;20199;-80
2022/10/13 10:17:58;;;;;;;9.93;4.70;;;;;;;-145.69;94.55;52442.41;5054885;28;20701;-80
2022/10/13 10:20:40;;;;;;;10.77;3.72;;;;;;;-145.69;94.10;52454.28;5055239;28;20199;-80
2022/10/13 10:23:13;;;;;;;9.30;4.53;;;;;;;-145.69;96.02;52456.28;5054253;28;20211;-80
2022/10/13 10:25:44;;;;;;;9.20;3.72;;;;;;;-145.69;94.31;52404.78;5053824;28;20303;-80
2022/10/13 10:28:33;;;;;;;13.05;4.07;;;;;;;-145.69;95.43;52412.69;5055283;28;20199;-80
2022/10/13 10:31:11;;;;;;;9.35;3.92;;;;;;;-145.69;95.94;52444.38;5053942;28;20207;-80
2022/10/13 10:33:54;;;;;;;10.40;4.20;;;;;;;-145.69;100.00;52491.91;5053568;28;20233;-80
2022/10/13 10:36:27;;;;;;;14.40;4.10;;;;;;;-145.69;96.31;52432.50;5034216;28;20208;-80
2022/10/13 10:39:02;;;;;;;10.50;3.70;;;;;;;-145.69;97.85;52444.38;5033597;28;20231;-81
2022/10/13 10:41:44;;;;;;;9.27;4.43;;;;;;;-145.69;96.10;52448.34;5033721;28;20204;-80
2022/10/13 10:44:15;;;;;;;11.88;4.88;;;;;;;-145.69;94.91;52416.66;5032838;28;20200;-81
2022/10/13 10:46:45;;;;;;;14.32;4.90;;;;;;;-145.69;91.28;52426.56;5032500;28;20460;-81
2022/10/13 10:49:16;;;;;;;8.75;4.32;;;;;;;-145.69;91.81;52470.13;5033005;28;20239;-81
2022/10/13 10:51:44;;;;;;;9.95;4.45;;;;;;;-145.69;90.22;52404.78;5033103;28;20211;-81
2022/10/13 10:54:26;;;;;;;10.45;4.82;;;;;;;-145.69;91.78;52406.75;5032809;28;20204;-81
2022/10/13 10:56:56;;;;;;;9.50;4.00;;;;;;;-145.69;93.05;52468.16;5043793;28;20206;-81
2022/10/13 10:59:42;;;;;;;13.13;4.85;;;;;;;-145.69;96.64;52452.31;5032990;28;20208;-81
2022/10/13 11:02:30;;;;;;;11.98;4.47;;;;;;;-145.69;95.71;52410.72;5032601;28;20672;-81
2022/10/13 11:04:58;;;;;;;9.90;4.43;;;;;;;-145.69;99.45;52422.59;5032743;28;20705;-81
2022/10/13 11:07:59;;;;;;;12.52;4.57;;;;;;;-145.69;97.24;52444.38;5032925;28;20262;-81